createdAt,value
2023-01-31T00:00:27.436Z,8.42
2023-01-31T00:01:33.310Z,8.53
2023-01-31T00:02:36.270Z,8.38
2023-01-31T00:03:39.906Z,8.20
2023-01-31T00:04:42.415Z,7.95
2023-01-31T00:05:44.911Z,7.85
2023-01-31T00:06:52.177Z,7.33
2023-01-31T00:07:54.576Z,7.75
2023-01-31T00:08:58.262Z,8.18
2023-01-31T00:10:00.828Z,8.48
2023-01-31T00:11:03.230Z,7.77
2023-01-31T00:12:05.720Z,7.82
2023-01-31T00:13:08.128Z,7.43
2023-01-31T00:14:13.409Z,7.07
2023-01-31T00:15:16.666Z,7.42
2023-01-31T00:16:20.121Z,8.13
2023-01-31T00:17:22.438Z,8.18
2023-01-31T00:18:24.821Z,8.07
2023-01-31T00:19:27.240Z,7.73
2023-01-31T00:20:29.610Z,7.97
2023-01-31T00:21:32.790Z,8.72
2023-01-31T00:22:35.171Z,8.30
2023-01-31T00:23:39.042Z,8.57
2023-01-31T00:24:41.399Z,10.10
2023-01-31T00:25:43.719Z,8.78
2023-01-31T00:26:46.398Z,9.35
2023-01-31T00:27:48.720Z,9.57
2023-01-31T00:28:53.123Z,9.47
2023-01-31T00:29:55.559Z,9.73
2023-01-31T00:30:58.683Z,9.62
2023-01-31T00:32:01.211Z,9.08
2023-01-31T00:33:03.609Z,8.55
2023-01-31T00:34:05.990Z,9.37
2023-01-31T00:35:08.655Z,8.62
2023-01-31T00:36:16.865Z,8.12
2023-01-31T00:37:19.910Z,7.97
2023-01-31T00:38:22.252Z,8.98
2023-01-31T00:39:24.622Z,7.80
2023-01-31T00:40:26.988Z,7.93
2023-01-31T00:41:30.731Z,7.88
2023-01-31T00:42:33.175Z,7.67
2023-01-31T00:43:36.073Z,8.30
2023-01-31T00:44:38.438Z,7.88
2023-01-31T00:45:40.813Z,6.93
2023-01-31T00:46:43.219Z,6.87
2023-01-31T00:47:45.602Z,6.77
2023-01-31T00:48:48.658Z,6.65
2023-01-31T00:49:51.008Z,6.87
2023-01-31T00:50:53.328Z,6.80
2023-01-31T00:51:55.684Z,7.17
2023-01-31T00:52:58.059Z,7.03
2023-01-31T00:54:00.420Z,7.78
2023-01-31T00:55:02.838Z,7.60
2023-01-31T00:56:08.446Z,8.17
2023-01-31T00:57:10.784Z,8.27
2023-01-31T00:58:13.190Z,7.48
2023-01-31T00:59:15.518Z,6.97
2023-01-31T01:00:18.257Z,6.62
2023-01-31T01:01:23.468Z,7.45
2023-01-31T01:02:26.219Z,7.83
2023-01-31T01:03:31.035Z,7.90
2023-01-31T01:04:33.451Z,7.67
2023-01-31T01:05:36.646Z,7.13
2023-01-31T01:06:40.647Z,7.30
2023-01-31T01:07:42.947Z,6.72
2023-01-31T01:08:46.375Z,6.98
2023-01-31T01:09:48.755Z,7.22
2023-01-31T01:10:51.133Z,6.90
2023-01-31T01:11:53.640Z,6.23
2023-01-31T01:12:56.037Z,6.83
2023-01-31T01:13:59.871Z,7.15
2023-01-31T01:15:02.212Z,6.58
2023-01-31T01:16:12.965Z,6.80
2023-01-31T01:17:15.333Z,6.82
2023-01-31T01:18:17.681Z,6.80
2023-01-31T01:19:20.705Z,6.28
2023-01-31T01:20:23.444Z,5.95
2023-01-31T01:21:28.116Z,6.03
2023-01-31T01:22:32.150Z,6.17
2023-01-31T01:23:34.638Z,6.60
2023-01-31T01:24:37.179Z,6.17
2023-01-31T01:25:44.108Z,6.10
2023-01-31T01:26:46.772Z,6.00
2023-01-31T01:27:49.156Z,6.20
2023-01-31T01:28:52.511Z,5.95
2023-01-31T01:29:54.899Z,5.60
2023-01-31T01:30:57.290Z,5.87
2023-01-31T01:31:59.828Z,5.97
2023-01-31T01:33:02.285Z,5.45
2023-01-31T01:34:07.806Z,5.32
2023-01-31T01:35:10.338Z,5.30
2023-01-31T01:36:17.443Z,5.53
2023-01-31T01:37:22.704Z,5.68
2023-01-31T01:38:25.074Z,5.78
2023-01-31T01:39:30.471Z,5.65
2023-01-31T01:40:38.003Z,5.38
2023-01-31T01:41:41.139Z,5.77
2023-01-31T01:42:43.552Z,5.60
2023-01-31T01:43:54.824Z,5.33
2023-01-31T01:44:59.723Z,5.53
2023-01-31T01:46:02.308Z,5.83
2023-01-31T01:47:04.792Z,5.70
2023-01-31T01:48:09.235Z,5.63
2023-01-31T01:49:31.440Z,5.48
2023-01-31T01:50:44.479Z,5.17
2023-01-31T01:51:49.651Z,5.97
2023-01-31T01:53:01.138Z,6.48
2023-01-31T01:54:06.343Z,6.62
2023-01-31T01:55:19.075Z,6.27
2023-01-31T01:56:29.560Z,6.23
2023-01-31T01:57:36.440Z,6.25
2023-01-31T01:58:47.325Z,6.50
2023-01-31T02:01:23.193Z,5.92
2023-01-31T02:02:26.257Z,5.65
2023-01-31T02:03:28.821Z,5.28
2023-01-31T02:04:36.468Z,5.43
2023-01-31T02:05:47.423Z,5.43
2023-01-31T02:06:50.353Z,5.23
2023-01-31T02:07:52.829Z,5.12
2023-01-31T02:08:55.381Z,5.45
2023-01-31T02:10:04.456Z,5.57
2023-01-31T02:11:15.875Z,5.70
2023-01-31T02:12:18.375Z,5.58
2023-01-31T02:13:21.428Z,5.23
2023-01-31T02:14:24.760Z,5.27
2023-01-31T02:15:27.320Z,5.05
2023-01-31T02:16:30.110Z,4.67
2023-01-31T02:17:32.448Z,4.87
2023-01-31T02:18:35.289Z,4.68
2023-01-31T02:20:19.342Z,4.55
2023-01-31T02:21:33.700Z,3.93
2023-01-31T02:23:13.208Z,3.93
2023-01-31T02:24:28.627Z,4.42
2023-01-31T02:25:48.476Z,4.90
2023-01-31T02:27:09.247Z,5.15
2023-01-31T02:28:29.193Z,4.90
2023-01-31T02:29:44.532Z,4.35
2023-01-31T02:31:02.024Z,4.12
2023-01-31T02:32:16.274Z,4.27
2023-01-31T02:33:23.768Z,4.38
2023-01-31T02:34:37.136Z,4.17
2023-01-31T02:36:03.683Z,4.28
2023-01-31T02:37:23.155Z,3.67
2023-01-31T02:38:51.672Z,4.02
2023-01-31T02:40:04.231Z,3.63
2023-01-31T02:41:12.292Z,3.78
2023-01-31T02:42:35.222Z,3.38
2023-01-31T02:44:04.474Z,3.58
2023-01-31T02:45:28.424Z,4.02
2023-01-31T02:46:43.589Z,3.58
2023-01-31T02:47:51.723Z,3.58
2023-01-31T02:49:00.623Z,3.67
2023-01-31T02:50:05.046Z,3.37
2023-01-31T02:51:31.362Z,3.25
2023-01-31T02:52:46.352Z,3.63
2023-01-31T02:53:55.881Z,11.43
2023-01-31T02:55:31.308Z,10.57
2023-01-31T02:56:36.767Z,4.85
2023-01-31T02:57:41.191Z,3.90
2023-01-31T02:58:59.824Z,3.22
2023-01-31T03:00:02.184Z,2.98
2023-01-31T03:01:06.344Z,2.98
2023-01-31T03:02:09.264Z,2.73
2023-01-31T03:03:20.874Z,2.55
2023-01-31T03:04:24.088Z,2.95
2023-01-31T03:05:26.574Z,2.62
2023-01-31T03:06:54.996Z,3.00
2023-01-31T03:08:01.262Z,2.80
2023-01-31T03:09:25.193Z,2.52
2023-01-31T03:10:45.506Z,3.00
2023-01-31T03:11:56.773Z,3.02
2023-01-31T03:13:14.851Z,2.80
2023-01-31T03:14:27.943Z,2.93
2023-01-31T03:15:59.825Z,2.78
2023-01-31T03:17:29.212Z,2.63
2023-01-31T03:18:45.112Z,2.67
2023-01-31T03:20:02.125Z,2.92
2023-01-31T03:21:37.076Z,2.65
2023-01-31T03:22:43.789Z,2.33
2023-01-31T03:23:51.791Z,2.38
2023-01-31T03:24:54.844Z,2.38
2023-01-31T03:26:00.322Z,2.57
2023-01-31T03:27:03.552Z,2.78
2023-01-31T03:28:10.713Z,2.67
2023-01-31T03:29:16.297Z,2.68
2023-01-31T03:30:45.683Z,2.38
2023-01-31T03:31:55.199Z,2.72
2023-01-31T03:33:07.215Z,2.57
2023-01-31T03:34:14.044Z,2.62
2023-01-31T03:35:16.816Z,2.52
2023-01-31T03:36:35.213Z,2.42
2023-01-31T03:37:49.581Z,2.65
2023-01-31T03:39:30.813Z,2.82
2023-01-31T03:40:48.293Z,3.17
2023-01-31T03:41:56.976Z,2.60
2023-01-31T03:43:08.426Z,3.42
2023-01-31T03:44:31.531Z,4.37
2023-01-31T03:45:41.991Z,3.52
2023-01-31T03:46:48.214Z,3.42
2023-01-31T03:47:52.045Z,3.50
2023-01-31T03:48:56.503Z,3.02
2023-01-31T03:50:04.231Z,2.95
2023-01-31T03:51:10.989Z,3.35
2023-01-31T03:52:18.905Z,3.10
2023-01-31T03:53:40.047Z,2.87
2023-01-31T03:54:48.401Z,2.70
2023-01-31T03:55:58.883Z,3.03
2023-01-31T03:57:25.893Z,3.07
2023-01-31T03:58:35.968Z,2.62
2023-01-31T03:59:39.680Z,2.78
2023-01-31T04:00:44.087Z,2.98
2023-01-31T04:01:50.303Z,3.65
2023-01-31T04:03:08.975Z,3.67
2023-01-31T04:04:16.047Z,3.72
2023-01-31T04:05:22.119Z,3.70
2023-01-31T04:06:24.792Z,3.58
2023-01-31T04:07:27.197Z,3.80
2023-01-31T04:08:32.177Z,3.60
2023-01-31T04:09:34.882Z,3.88
2023-01-31T04:10:37.400Z,3.22
2023-01-31T04:11:41.126Z,3.43
2023-01-31T04:12:43.887Z,3.35
2023-01-31T04:13:46.204Z,3.13
2023-01-31T04:14:48.565Z,3.52
2023-01-31T04:15:50.973Z,3.42
2023-01-31T04:16:53.353Z,3.55
2023-01-31T04:17:55.692Z,3.77
2023-01-31T04:18:58.115Z,3.60
2023-01-31T04:20:00.676Z,3.42
2023-01-31T04:21:03.152Z,3.15
2023-01-31T04:22:05.672Z,3.58
2023-01-31T04:23:08.105Z,3.47
2023-01-31T04:24:10.532Z,3.80
2023-01-31T04:25:12.927Z,3.82
2023-01-31T04:26:15.306Z,3.67
2023-01-31T04:27:17.813Z,3.60
2023-01-31T04:28:20.155Z,3.55
2023-01-31T04:29:22.516Z,3.53
2023-01-31T04:30:24.824Z,3.72
2023-01-31T04:31:27.323Z,4.17
2023-01-31T04:32:29.791Z,5.15
2023-01-31T04:33:32.322Z,5.02
2023-01-31T04:34:34.760Z,4.55
2023-01-31T04:35:40.727Z,4.08
2023-01-31T04:36:43.052Z,3.93
2023-01-31T04:37:45.436Z,4.37
2023-01-31T04:38:47.778Z,4.75
2023-01-31T04:39:50.227Z,4.38
2023-01-31T04:40:52.579Z,4.45
2023-01-31T04:41:55.016Z,4.92
2023-01-31T04:42:57.402Z,4.67
2023-01-31T04:43:59.745Z,5.08
2023-01-31T04:45:02.186Z,5.02
2023-01-31T04:46:04.703Z,4.38
2023-01-31T04:47:07.033Z,4.18
2023-01-31T04:48:09.996Z,4.13
2023-01-31T04:49:13.809Z,4.15
2023-01-31T04:50:16.791Z,4.48
2023-01-31T04:51:19.154Z,4.07
2023-01-31T04:52:21.673Z,3.90
2023-01-31T04:53:24.100Z,3.87
2023-01-31T04:54:26.445Z,3.57
2023-01-31T04:55:29.032Z,4.20
2023-01-31T04:56:32.109Z,4.40
2023-01-31T04:57:34.430Z,4.40
2023-01-31T04:58:36.853Z,4.40
2023-01-31T04:59:39.160Z,4.27
2023-01-31T05:00:41.487Z,4.05
2023-01-31T05:01:43.865Z,3.87
2023-01-31T05:02:46.476Z,3.78
2023-01-31T05:03:48.980Z,3.82
2023-01-31T05:04:51.392Z,3.85
2023-01-31T05:05:53.754Z,4.23
2023-01-31T05:06:56.153Z,5.77
2023-01-31T05:07:58.563Z,6.05
2023-01-31T05:09:01.724Z,4.00
2023-01-31T05:10:04.417Z,3.87
2023-01-31T05:11:07.513Z,3.52
2023-01-31T05:12:10.166Z,3.50
2023-01-31T05:13:12.550Z,3.75
2023-01-31T05:14:15.076Z,3.78
2023-01-31T05:15:17.860Z,3.75
2023-01-31T05:16:20.415Z,4.00
2023-01-31T05:17:29.681Z,3.18
2023-01-31T05:18:32.699Z,2.78
2023-01-31T05:19:35.272Z,2.58
2023-01-31T05:20:40.860Z,2.90
2023-01-31T05:21:55.742Z,3.27
2023-01-31T05:22:58.517Z,3.12
2023-01-31T05:24:00.876Z,2.88
2023-01-31T05:25:03.739Z,2.73
2023-01-31T05:26:06.162Z,2.87
2023-01-31T05:27:10.112Z,2.52
2023-01-31T05:28:13.052Z,2.48
2023-01-31T05:29:15.705Z,3.45
2023-01-31T05:30:18.992Z,3.60
2023-01-31T05:31:21.619Z,3.63
2023-01-31T05:32:24.042Z,3.73
2023-01-31T05:33:29.276Z,2.65
2023-01-31T05:34:33.421Z,2.53
2023-01-31T05:35:36.035Z,3.13
2023-01-31T05:36:38.375Z,2.40
2023-01-31T05:37:43.541Z,2.82
2023-01-31T05:38:47.538Z,2.58
2023-01-31T05:39:49.958Z,2.80
2023-01-31T05:40:52.302Z,2.87
2023-01-31T05:41:54.931Z,2.65
2023-01-31T05:43:00.667Z,2.88
2023-01-31T05:44:03.216Z,3.23
2023-01-31T05:45:06.524Z,3.40
2023-01-31T05:46:08.937Z,4.73
2023-01-31T05:47:11.293Z,5.53
2023-01-31T05:48:13.617Z,4.32
2023-01-31T05:49:16.338Z,4.62
2023-01-31T05:50:19.420Z,5.03
2023-01-31T05:51:21.828Z,7.38
2023-01-31T05:52:24.146Z,9.58
2023-01-31T05:53:26.491Z,4.75
2023-01-31T05:54:29.100Z,6.37
2023-01-31T05:55:31.515Z,4.20
2023-01-31T05:56:34.221Z,5.42
2023-01-31T05:57:36.631Z,6.22
2023-01-31T05:58:38.955Z,3.27
2023-01-31T05:59:41.599Z,2.60
2023-01-31T06:00:43.963Z,3.57
2023-01-31T06:01:46.418Z,13.68
2023-01-31T06:02:49.057Z,15.33
2023-01-31T06:03:51.805Z,6.23
2023-01-31T06:04:54.135Z,4.35
2023-01-31T06:05:57.263Z,4.02
2023-01-31T06:07:00.342Z,4.17
2023-01-31T06:08:02.923Z,3.65
2023-01-31T06:09:05.287Z,3.73
2023-01-31T06:10:10.037Z,3.55
2023-01-31T06:11:12.848Z,3.40
2023-01-31T06:12:15.522Z,3.22
2023-01-31T06:13:17.940Z,2.88
2023-01-31T06:14:20.408Z,2.97
2023-01-31T06:15:22.941Z,3.35
2023-01-31T06:16:25.740Z,3.80
2023-01-31T06:17:30.154Z,4.82
2023-01-31T06:19:14.187Z,5.17
2023-01-31T06:20:17.287Z,6.12
2023-01-31T06:21:19.791Z,5.43
2023-01-31T06:22:22.167Z,4.92
2023-01-31T06:23:24.692Z,8.32
2023-01-31T06:24:27.123Z,21.50
2023-01-31T06:25:29.495Z,24.32
2023-01-31T06:26:32.038Z,17.65
2023-01-31T06:27:34.971Z,12.50
2023-01-31T06:28:37.954Z,7.78
2023-01-31T06:29:40.298Z,5.38
2023-01-31T06:30:42.791Z,4.72
2023-01-31T06:31:46.366Z,5.02
2023-01-31T06:32:48.839Z,4.98
2023-01-31T06:33:51.400Z,5.40
2023-01-31T06:34:53.771Z,6.78
2023-01-31T06:35:59.731Z,5.35
2023-01-31T06:37:02.117Z,4.30
2023-01-31T06:38:05.341Z,3.55
2023-01-31T06:39:07.863Z,3.10
2023-01-31T06:40:12.317Z,3.40
2023-01-31T06:41:15.083Z,3.43
2023-01-31T06:42:17.512Z,3.02
2023-01-31T06:43:19.889Z,2.75
2023-01-31T06:44:22.317Z,2.90
2023-01-31T06:45:25.840Z,2.88
2023-01-31T06:46:28.304Z,2.98
2023-01-31T06:47:30.754Z,9.10
2023-01-31T06:48:35.155Z,16.45
2023-01-31T06:49:37.595Z,11.15
2023-01-31T06:50:42.481Z,6.60
2023-01-31T06:51:47.278Z,4.90
2023-01-31T06:53:11.705Z,4.13
2023-01-31T06:54:58.660Z,3.90
2023-01-31T06:56:32.688Z,3.75
2023-01-31T06:57:40.037Z,3.95
2023-01-31T06:58:44.372Z,32.40
2023-01-31T06:59:47.979Z,77.70
2023-01-31T07:00:50.585Z,45.00
2023-01-31T07:01:57.013Z,23.93
2023-01-31T07:03:00.046Z,10.65
2023-01-31T07:04:02.534Z,9.48
2023-01-31T07:05:05.367Z,7.68
2023-01-31T07:06:08.940Z,11.35
2023-01-31T07:07:11.369Z,11.62
2023-01-31T07:08:14.699Z,10.15
2023-01-31T07:09:17.342Z,8.15
2023-01-31T07:10:19.842Z,7.28
2023-01-31T07:11:22.226Z,6.47
2023-01-31T07:12:24.559Z,6.38
2023-01-31T07:13:26.941Z,6.18
2023-01-31T07:14:29.392Z,6.65
2023-01-31T07:15:31.770Z,6.98
2023-01-31T07:16:34.434Z,6.80
2023-01-31T07:17:36.845Z,6.00
2023-01-31T07:18:39.168Z,5.15
2023-01-31T07:19:41.563Z,5.23
2023-01-31T07:20:43.915Z,5.13
2023-01-31T07:21:47.335Z,5.63
2023-01-31T07:22:57.121Z,5.97
2023-01-31T07:23:59.798Z,5.30
2023-01-31T07:25:02.178Z,4.62
2023-01-31T07:26:05.949Z,4.32
2023-01-31T07:27:08.452Z,4.27
2023-01-31T07:28:12.003Z,5.12
2023-01-31T07:29:14.402Z,4.88
2023-01-31T07:30:17.209Z,3.88
2023-01-31T07:31:21.035Z,3.30
2023-01-31T07:32:23.469Z,3.47
2023-01-31T07:33:26.487Z,3.93
2023-01-31T07:34:28.852Z,5.17
2023-01-31T07:35:31.285Z,6.08
2023-01-31T07:36:33.627Z,5.72
2023-01-31T07:37:36.024Z,5.65
2023-01-31T07:38:38.440Z,4.93
2023-01-31T07:39:40.773Z,6.02
2023-01-31T07:40:43.105Z,5.60
2023-01-31T07:41:45.477Z,4.75
2023-01-31T07:42:47.875Z,4.27
2023-01-31T07:43:52.934Z,4.05
2023-01-31T07:44:55.318Z,4.60
2023-01-31T07:45:58.487Z,4.40
2023-01-31T07:47:00.965Z,4.57
2023-01-31T07:48:03.557Z,6.45
2023-01-31T07:49:05.990Z,7.75
2023-01-31T07:50:09.207Z,7.07
2023-01-31T07:51:13.889Z,12.05
2023-01-31T07:52:16.559Z,15.22
2023-01-31T07:53:20.235Z,14.15
2023-01-31T07:54:22.897Z,12.08
2023-01-31T07:55:27.367Z,9.25
2023-01-31T07:56:29.842Z,6.67
2023-01-31T07:57:34.672Z,8.00
2023-01-31T07:58:41.704Z,8.27
2023-01-31T07:59:52.476Z,7.35
2023-01-31T08:01:13.317Z,5.43
2023-01-31T08:02:36.593Z,4.67
2023-01-31T08:03:39.013Z,5.08
2023-01-31T08:04:41.485Z,4.30
2023-01-31T08:05:46.560Z,4.27
2023-01-31T08:06:51.220Z,3.83
2023-01-31T08:08:10.443Z,4.02
2023-01-31T08:09:13.226Z,3.72
2023-01-31T08:10:18.017Z,3.73
2023-01-31T08:11:20.432Z,3.78
2023-01-31T08:12:22.850Z,3.87
2023-01-31T08:13:26.997Z,5.27
2023-01-31T08:14:29.466Z,4.62
2023-01-31T08:15:32.209Z,5.92
2023-01-31T08:16:36.544Z,6.37
2023-01-31T08:17:38.868Z,5.55
2023-01-31T08:18:41.713Z,9.12
2023-01-31T08:19:44.135Z,8.13
2023-01-31T08:20:46.678Z,7.10
2023-01-31T08:21:49.569Z,4.47
2023-01-31T08:22:52.157Z,6.15
2023-01-31T08:23:55.553Z,6.57
2023-01-31T08:24:59.468Z,6.12
2023-01-31T08:26:24.865Z,6.18
2023-01-31T08:27:27.238Z,5.45
2023-01-31T08:28:29.692Z,4.27
2023-01-31T08:29:31.996Z,3.93
2023-01-31T08:30:34.736Z,4.43
2023-01-31T08:31:37.236Z,4.50
2023-01-31T08:32:39.622Z,5.82
2023-01-31T08:33:42.026Z,5.73
2023-01-31T08:34:44.399Z,6.13
2023-01-31T08:35:49.191Z,5.72
2023-01-31T08:36:55.108Z,4.32
2023-01-31T08:38:07.107Z,3.83
2023-01-31T08:39:17.765Z,4.10
2023-01-31T08:40:21.101Z,3.53
2023-01-31T08:41:33.266Z,3.40
2023-01-31T08:42:40.737Z,3.87
2023-01-31T08:43:55.943Z,3.42
2023-01-31T08:45:07.658Z,3.33
2023-01-31T08:46:28.279Z,2.92
2023-01-31T08:47:35.203Z,4.30
2023-01-31T08:48:50.462Z,3.67
2023-01-31T08:49:56.577Z,3.12
2023-01-31T08:51:14.753Z,3.18
2023-01-31T08:53:01.799Z,3.40
2023-01-31T08:56:41.584Z,4.63
2023-01-31T08:57:58.469Z,4.25
2023-01-31T09:01:32.832Z,5.70
2023-01-31T09:02:35.210Z,5.93
2023-01-31T09:03:38.047Z,5.63
2023-01-31T09:04:40.396Z,4.58
2023-01-31T09:05:42.867Z,3.33
2023-01-31T09:06:45.175Z,2.97
2023-01-31T09:07:47.554Z,3.17
2023-01-31T09:08:49.902Z,3.10
2023-01-31T09:09:52.209Z,3.53
2023-01-31T09:10:55.051Z,3.88
2023-01-31T09:11:57.424Z,3.10
2023-01-31T09:13:00.648Z,3.23
2023-01-31T09:14:02.978Z,3.17
2023-01-31T09:15:06.058Z,3.35
2023-01-31T09:16:10.403Z,3.65
2023-01-31T09:17:12.831Z,2.97
2023-01-31T09:18:15.244Z,6.38
2023-01-31T09:19:17.802Z,5.10
2023-01-31T09:20:20.383Z,3.30
2023-01-31T09:21:23.948Z,3.08
2023-01-31T09:22:26.329Z,2.32
2023-01-31T09:23:28.639Z,2.42
2023-01-31T09:24:31.036Z,2.28
2023-01-31T09:25:44.782Z,2.50
2023-01-31T09:26:49.170Z,3.52
2023-01-31T09:27:53.099Z,3.92
2023-01-31T09:28:57.856Z,3.02
2023-01-31T09:30:00.312Z,2.43
2023-01-31T09:31:05.230Z,2.73
2023-01-31T09:32:08.008Z,3.27
2023-01-31T09:33:10.357Z,3.37
2023-01-31T09:36:30.535Z,2.55
2023-01-31T09:37:38.482Z,2.87
2023-01-31T09:38:48.945Z,2.47
2023-01-31T09:40:02.819Z,3.00
2023-01-31T09:41:47.235Z,4.08
2023-01-31T09:43:22.069Z,5.17
2023-01-31T09:44:39.227Z,4.93
2023-01-31T09:45:44.898Z,4.53
2023-01-31T09:46:59.224Z,6.05
2023-01-31T09:48:03.057Z,7.03
2023-01-31T09:49:11.002Z,6.38
2023-01-31T09:50:13.343Z,5.77
2023-01-31T09:51:17.400Z,4.98
2023-01-31T09:52:21.418Z,4.38
2023-01-31T09:53:29.221Z,4.15
2023-01-31T09:54:41.406Z,6.42
2023-01-31T09:56:06.538Z,4.53
2023-01-31T09:57:28.401Z,5.47
2023-01-31T09:58:44.138Z,4.70
2023-01-31T09:59:52.938Z,3.63
2023-01-31T10:01:10.074Z,4.90
2023-01-31T10:02:50.830Z,6.18
2023-01-31T10:04:18.241Z,5.55
2023-01-31T10:05:46.197Z,3.68
2023-01-31T10:07:12.396Z,3.40
2023-01-31T10:08:53.205Z,3.63
2023-01-31T10:10:15.204Z,3.33
2023-01-31T10:11:34.151Z,3.85
2023-01-31T10:12:53.336Z,3.90
2023-01-31T10:14:14.401Z,2.77
2023-01-31T10:15:30.480Z,3.20
2023-01-31T10:17:04.945Z,2.72
2023-01-31T10:18:29.162Z,4.18
2023-01-31T10:19:58.140Z,3.42
2023-01-31T10:21:08.123Z,3.02
2023-01-31T10:22:16.692Z,4.03
2023-01-31T10:23:35.864Z,3.15
2023-01-31T10:25:00.975Z,5.42
2023-01-31T10:26:30.459Z,8.73
2023-01-31T10:27:41.381Z,6.38
2023-01-31T10:29:00.517Z,8.78
2023-01-31T10:30:05.268Z,4.42
2023-01-31T10:31:45.224Z,5.78
2023-01-31T10:32:54.828Z,8.15
2023-01-31T10:34:03.890Z,7.18
2023-01-31T10:35:25.780Z,3.70
2023-01-31T10:38:25.400Z,5.63
2023-01-31T10:39:53.094Z,4.32
2023-01-31T10:46:45.084Z,12.62
2023-01-31T10:47:54.426Z,12.22
2023-01-31T10:49:01.226Z,9.53
2023-01-31T10:50:26.762Z,7.12
2023-01-31T10:51:45.563Z,5.32
2023-01-31T10:53:04.409Z,6.28
2023-01-31T10:54:36.053Z,7.48
2023-01-31T10:56:03.979Z,4.77
2023-01-31T10:57:08.495Z,7.90
2023-01-31T10:58:15.690Z,11.00
2023-01-31T10:59:25.655Z,5.15
2023-01-31T11:00:31.297Z,3.58
2023-01-31T11:01:35.971Z,3.35
2023-01-31T11:02:39.068Z,3.12
2023-01-31T11:03:49.287Z,3.27
2023-01-31T11:04:55.123Z,3.85
2023-01-31T11:05:58.694Z,4.23
2023-01-31T11:07:02.368Z,4.45
2023-01-31T11:08:21.370Z,6.55
2023-01-31T11:09:25.007Z,5.85
2023-01-31T11:10:33.058Z,5.25
2023-01-31T11:11:54.282Z,4.82
2023-01-31T11:13:02.326Z,6.12
2023-01-31T11:14:18.373Z,8.37
2023-01-31T11:15:24.995Z,8.78
2023-01-31T11:16:40.531Z,5.77
2023-01-31T11:17:46.194Z,4.13
2023-01-31T11:18:51.128Z,4.18
2023-01-31T11:19:56.042Z,4.72
2023-01-31T11:21:01.677Z,5.72
2023-01-31T11:22:06.226Z,5.43
2023-01-31T11:23:14.709Z,5.63
2023-01-31T11:24:22.160Z,5.92
2023-01-31T11:25:27.718Z,6.23
2023-01-31T11:26:57.164Z,5.02
2023-01-31T11:28:37.828Z,2.37
2023-01-31T11:32:00.733Z,2.98
2023-01-31T11:33:14.659Z,3.55
2023-01-31T11:34:54.184Z,5.43
2023-01-31T11:40:47.134Z,3.35
2023-01-31T11:42:16.234Z,4.80
2023-01-31T11:43:42.543Z,5.40
2023-01-31T11:46:54.153Z,3.10
2023-01-31T11:48:01.902Z,6.52
2023-01-31T11:49:14.282Z,3.95
2023-01-31T11:50:40.318Z,3.52
2023-01-31T11:51:47.673Z,4.57
2023-01-31T11:53:04.336Z,4.02
2023-01-31T11:54:11.772Z,2.78
2023-01-31T11:55:20.627Z,3.23
2023-01-31T11:56:28.575Z,4.35
2023-01-31T11:57:39.276Z,13.37
2023-01-31T11:58:51.809Z,7.32
2023-01-31T12:00:02.715Z,3.33
2023-01-31T12:01:14.265Z,2.83
2023-01-31T12:02:33.315Z,2.65
2023-01-31T12:03:38.159Z,2.92
2023-01-31T12:04:49.905Z,3.13
2023-01-31T12:06:08.927Z,2.70
2023-01-31T12:07:24.011Z,2.53
2023-01-31T12:08:33.814Z,2.67
2023-01-31T12:09:48.341Z,4.02
2023-01-31T12:10:52.974Z,3.45
2023-01-31T12:12:10.258Z,3.38
2023-01-31T12:13:19.471Z,3.08
2023-01-31T12:14:25.323Z,3.20
2023-01-31T12:15:29.740Z,3.23
2023-01-31T12:16:54.382Z,2.63
2023-01-31T12:18:00.501Z,2.95
2023-01-31T12:19:12.028Z,2.92
2023-01-31T12:20:28.083Z,2.62
2023-01-31T12:21:53.318Z,2.27
2023-01-31T12:23:24.262Z,4.45
2023-01-31T12:24:39.740Z,5.80
2023-01-31T12:25:48.419Z,4.02
2023-01-31T12:27:43.499Z,5.08
2023-01-31T12:32:58.795Z,3.77
2023-01-31T12:34:30.330Z,3.48
2023-01-31T12:36:03.815Z,3.72
2023-01-31T12:37:30.472Z,3.10
2023-01-31T12:40:45.757Z,2.80
2023-01-31T12:42:13.117Z,3.02
2023-01-31T12:43:21.995Z,3.12
2023-01-31T12:44:39.879Z,3.03
2023-01-31T12:45:50.976Z,3.42
2023-01-31T12:47:10.109Z,3.05
2023-01-31T12:48:34.282Z,3.03
2023-01-31T12:49:36.610Z,2.23
2023-01-31T12:51:21.053Z,2.13
2023-01-31T12:52:39.306Z,2.53
2023-01-31T12:53:53.554Z,2.73
2023-01-31T12:55:14.602Z,4.43
2023-01-31T12:56:47.211Z,2.40
2023-01-31T12:58:19.805Z,2.57
2023-01-31T12:59:46.722Z,2.78
2023-01-31T13:01:05.106Z,5.53
2023-01-31T13:02:10.532Z,7.22
2023-01-31T13:03:26.283Z,4.68
2023-01-31T13:04:34.752Z,3.07
2023-01-31T13:05:45.085Z,6.95
2023-01-31T13:06:54.280Z,7.07
2023-01-31T13:08:11.342Z,7.30
2023-01-31T13:09:21.959Z,5.75
2023-01-31T13:10:41.539Z,4.08
2023-01-31T13:11:51.060Z,6.22
2023-01-31T13:12:56.545Z,3.90
2023-01-31T13:35:37.163Z,10.00
2023-01-31T13:37:07.674Z,7.08
2023-01-31T13:38:35.811Z,6.03
2023-01-31T13:40:12.592Z,6.13
2023-01-31T13:41:30.948Z,5.15
2023-01-31T13:42:38.877Z,5.77
2023-01-31T13:44:04.422Z,6.65
2023-01-31T13:45:39.288Z,6.22
2023-01-31T13:47:42.518Z,6.88
2023-01-31T13:49:08.681Z,6.50
2023-01-31T13:51:02.702Z,5.38
2023-01-31T13:52:17.957Z,5.30
2023-01-31T13:53:35.648Z,6.28
2023-01-31T13:54:49.960Z,6.50
2023-01-31T13:55:54.271Z,6.53
2023-01-31T13:58:06.509Z,6.95
2023-01-31T14:02:03.402Z,5.82
2023-01-31T14:03:15.247Z,4.78
2023-01-31T14:04:19.205Z,5.33
2023-01-31T14:05:49.363Z,5.22
2023-01-31T14:07:13.860Z,6.42
2023-01-31T14:10:56.209Z,5.40
2023-01-31T14:15:19.851Z,6.83
2023-01-31T14:16:39.789Z,5.18
2023-01-31T14:17:43.780Z,4.70
2023-01-31T14:23:49.881Z,5.93
2023-01-31T14:25:00.072Z,4.95
2023-01-31T14:26:02.673Z,5.45
2023-01-31T14:27:32.324Z,5.82
2023-01-31T14:28:43.280Z,5.98
2023-01-31T14:29:54.699Z,4.80
2023-01-31T14:30:57.865Z,5.80
2023-01-31T14:32:00.414Z,5.85
2023-01-31T14:33:29.416Z,5.68
2023-01-31T14:34:32.855Z,6.65
2023-01-31T14:35:58.219Z,7.13
2023-01-31T14:37:06.414Z,7.87
2023-01-31T14:38:46.160Z,6.88
2023-01-31T14:40:25.139Z,7.18
2023-01-31T14:41:33.838Z,8.53
2023-01-31T14:42:54.556Z,9.68
2023-01-31T14:44:07.188Z,8.23
2023-01-31T14:45:21.109Z,7.58
2023-01-31T14:46:26.543Z,7.27
2023-01-31T14:47:40.923Z,8.05
2023-01-31T14:49:31.663Z,7.98
2023-01-31T14:50:49.183Z,7.15
2023-01-31T14:52:10.203Z,7.38
2023-01-31T14:53:39.564Z,6.22
2023-01-31T14:55:00.515Z,6.80
2023-01-31T14:56:16.939Z,9.05
2023-01-31T14:57:26.002Z,11.40
2023-01-31T14:58:31.875Z,10.60
2023-01-31T14:59:45.370Z,12.40
2023-01-31T15:00:56.918Z,11.22
2023-01-31T15:02:00.707Z,10.27
2023-01-31T15:03:08.761Z,9.05
2023-01-31T15:04:22.250Z,8.88
2023-01-31T15:05:40.872Z,7.20
2023-01-31T15:06:44.567Z,11.23
2023-01-31T15:08:10.185Z,11.90
2023-01-31T15:09:24.897Z,9.08
2023-01-31T15:11:05.390Z,8.52
2023-01-31T15:12:46.621Z,9.95
2023-01-31T15:13:53.870Z,10.15
2023-01-31T15:14:58.722Z,11.08
2023-01-31T15:16:03.991Z,12.12
2023-01-31T15:17:32.995Z,10.85
2023-01-31T15:18:37.144Z,8.83
2023-01-31T15:20:00.761Z,8.50
2023-01-31T15:21:05.642Z,9.88
2023-01-31T15:22:10.341Z,10.70
2023-01-31T15:23:25.331Z,11.53
2023-01-31T15:24:34.812Z,8.97
2023-01-31T15:25:44.239Z,9.53
2023-01-31T15:26:48.571Z,12.58
2023-01-31T15:27:51.682Z,12.05
2023-01-31T15:28:54.339Z,14.02
2023-01-31T15:30:05.595Z,10.70
2023-01-31T15:31:18.180Z,9.68
2023-01-31T15:32:24.057Z,9.73
2023-01-31T15:33:33.229Z,11.95
2023-01-31T15:34:52.376Z,12.48
2023-01-31T15:36:02.800Z,12.32
2023-01-31T15:37:25.759Z,10.37
2023-01-31T15:38:41.291Z,11.00
2023-01-31T15:39:57.506Z,9.15
2023-01-31T15:41:26.428Z,7.52
2023-01-31T15:42:33.473Z,9.95
2023-01-31T15:43:38.946Z,8.12
2023-01-31T15:44:41.380Z,6.78
2023-01-31T15:45:43.817Z,9.37
2023-01-31T15:46:48.233Z,10.02
2023-01-31T15:48:02.337Z,9.35
2023-01-31T15:49:36.885Z,9.47
2023-01-31T15:50:50.496Z,8.02
2023-01-31T15:52:12.664Z,7.32
2023-01-31T15:53:16.344Z,8.97
2023-01-31T15:54:18.682Z,11.63
2023-01-31T15:55:21.390Z,10.02
2023-01-31T15:56:26.262Z,10.80
2023-01-31T15:57:36.944Z,11.35
2023-01-31T15:58:39.570Z,11.75
2023-01-31T15:59:44.862Z,16.27
2023-01-31T16:00:55.126Z,14.52
2023-01-31T16:02:01.725Z,16.52
2023-01-31T16:03:08.061Z,18.03
2023-01-31T16:04:12.748Z,20.43
2023-01-31T16:05:21.134Z,22.87
2023-01-31T16:06:27.563Z,23.32
2023-01-31T16:07:31.746Z,24.17
2023-01-31T16:08:37.897Z,27.70
2023-01-31T16:09:41.073Z,21.00
2023-01-31T16:10:45.515Z,14.10
2023-01-31T16:11:48.635Z,12.85
2023-01-31T16:12:53.538Z,14.47
2023-01-31T16:13:57.426Z,11.42
2023-01-31T16:15:05.578Z,12.63
2023-01-31T16:16:14.323Z,13.03
2023-01-31T16:17:19.688Z,11.07
2023-01-31T16:18:22.871Z,10.62
2023-01-31T16:19:38.501Z,11.37
2023-01-31T16:20:52.812Z,10.12
2023-01-31T16:21:55.623Z,10.22
2023-01-31T16:22:58.210Z,9.92
2023-01-31T16:24:22.325Z,12.65